sensor_id;sensor_type;location;lat;lon;timestamp;P1;durP1;ratioP1;P2;durP2;ratioP2
21771;SDS011;11047;47.904;8.110;2022-07-11T00:02:10;3.47;;;1.10;;
21771;SDS011;11047;47.904;8.110;2022-07-11T00:04:37;1.10;;;1.10;;
21771;SDS011;11047;47.904;8.110;2022-07-11T00:07:04;0.80;;;0.80;;
21771;SDS011;11047;47.904;8.110;2022-07-11T00:09:32;3.53;;;1.17;;
21771;SDS011;11047;47.904;8.110;2022-07-11T00:11:59;2.95;;;1.20;;
21771;SDS011;11047;47.904;8.110;2022-07-11T00:14:27;2.03;;;1.35;;
21771;SDS011;11047;47.904;8.110;2022-07-11T00:16:54;1.27;;;1.10;;
21771;SDS011;11047;47.904;8.110;2022-07-11T00:19:23;2.50;;;1.20;;
21771;SDS011;11047;47.904;8.110;2022-07-11T00:21:50;3.10;;;1.27;;
21771;SDS011;11047;47.904;8.110;2022-07-11T00:24:17;2.30;;;1.40;;
21771;SDS011;11047;47.904;8.110;2022-07-11T00:26:45;1.60;;;1.00;;
21771;SDS011;11047;47.904;8.110;2022-07-11T00:29:13;1.98;;;1.10;;
21771;SDS011;11047;47.904;8.110;2022-07-11T00:31:40;1.38;;;1.00;;
21771;SDS011;11047;47.904;8.110;2022-07-11T00:34:07;2.00;;;0.98;;
21771;SDS011;11047;47.904;8.110;2022-07-11T00:36:35;2.45;;;1.15;;
21771;SDS011;11047;47.904;8.110;2022-07-11T00:39:03;2.83;;;1.05;;
21771;SDS011;11047;47.904;8.110;2022-07-11T00:41:30;1.85;;;1.02;;
21771;SDS011;11047;47.904;8.110;2022-07-11T00:43:58;3.35;;;1.05;;
21771;SDS011;11047;47.904;8.110;2022-07-11T00:46:26;2.42;;;1.20;;
21771;SDS011;11047;47.904;8.110;2022-07-11T00:48:54;2.30;;;1.05;;
21771;SDS011;11047;47.904;8.110;2022-07-11T00:51:22;2.60;;;1.30;;
21771;SDS011;11047;47.904;8.110;2022-07-11T00:53:53;3.03;;;0.93;;
21771;SDS011;11047;47.904;8.110;2022-07-11T00:56:22;4.70;;;1.38;;
21771;SDS011;11047;47.904;8.110;2022-07-11T00:58:50;3.08;;;2.20;;
21771;SDS011;11047;47.904;8.110;2022-07-11T01:01:18;0.93;;;0.93;;
21771;SDS011;11047;47.904;8.110;2022-07-11T01:03:45;2.92;;;1.33;;
21771;SDS011;11047;47.904;8.110;2022-07-11T01:06:12;2.38;;;1.25;;
21771;SDS011;11047;47.904;8.110;2022-07-11T01:08:39;1.92;;;1.10;;
21771;SDS011;11047;47.904;8.110;2022-07-11T01:11:08;5.10;;;1.05;;
21771;SDS011;11047;47.904;8.110;2022-07-11T01:13:37;3.70;;;0.98;;
21771;SDS011;11047;47.904;8.110;2022-07-11T01:16:11;3.25;;;1.08;;
21771;SDS011;11047;47.904;8.110;2022-07-11T01:18:40;3.70;;;1.35;;
21771;SDS011;11047;47.904;8.110;2022-07-11T01:21:10;1.02;;;0.90;;
21771;SDS011;11047;47.904;8.110;2022-07-11T01:23:54;1.92;;;1.20;;
21771;SDS011;11047;47.904;8.110;2022-07-11T01:26:22;1.17;;;1.02;;
21771;SDS011;11047;47.904;8.110;2022-07-11T01:28:50;2.28;;;1.00;;
21771;SDS011;11047;47.904;8.110;2022-07-11T01:31:17;1.27;;;0.90;;
21771;SDS011;11047;47.904;8.110;2022-07-11T01:33:45;2.13;;;1.10;;
21771;SDS011;11047;47.904;8.110;2022-07-11T01:36:12;1.25;;;0.88;;
21771;SDS011;11047;47.904;8.110;2022-07-11T01:38:39;3.20;;;1.10;;
21771;SDS011;11047;47.904;8.110;2022-07-11T01:41:07;0.85;;;0.85;;
21771;SDS011;11047;47.904;8.110;2022-07-11T01:43:34;2.58;;;1.02;;
21771;SDS011;11047;47.904;8.110;2022-07-11T01:46:01;2.08;;;1.30;;
21771;SDS011;11047;47.904;8.110;2022-07-11T01:48:28;1.20;;;1.05;;
21771;SDS011;11047;47.904;8.110;2022-07-11T01:50:55;2.78;;;1.10;;
21771;SDS011;11047;47.904;8.110;2022-07-11T01:53:22;1.17;;;1.08;;
21771;SDS011;11047;47.904;8.110;2022-07-11T01:55:49;1.88;;;1.17;;
21771;SDS011;11047;47.904;8.110;2022-07-11T01:58:17;4.28;;;2.10;;
21771;SDS011;11047;47.904;8.110;2022-07-11T02:00:44;1.27;;;1.17;;
21771;SDS011;11047;47.904;8.110;2022-07-11T02:03:11;1.30;;;1.20;;
21771;SDS011;11047;47.904;8.110;2022-07-11T02:05:38;1.65;;;1.35;;
21771;SDS011;11047;47.904;8.110;2022-07-11T02:08:06;3.55;;;1.20;;
21771;SDS011;11047;47.904;8.110;2022-07-11T02:10:40;2.33;;;1.10;;
21771;SDS011;11047;47.904;8.110;2022-07-11T02:13:09;2.63;;;1.25;;
21771;SDS011;11047;47.904;8.110;2022-07-11T02:15:38;3.03;;;1.40;;
21771;SDS011;11047;47.904;8.110;2022-07-11T02:18:05;0.88;;;0.88;;
21771;SDS011;11047;47.904;8.110;2022-07-11T02:20:34;1.23;;;1.13;;
21771;SDS011;11047;47.904;8.110;2022-07-11T02:23:01;4.97;;;1.65;;
21771;SDS011;11047;47.904;8.110;2022-07-11T02:25:29;3.03;;;1.15;;
21771;SDS011;11047;47.904;8.110;2022-07-11T02:27:57;1.55;;;1.13;;
21771;SDS011;11047;47.904;8.110;2022-07-11T02:30:24;1.45;;;1.25;;
21771;SDS011;11047;47.904;8.110;2022-07-11T02:32:53;3.22;;;1.10;;
21771;SDS011;11047;47.904;8.110;2022-07-11T02:35:20;3.20;;;1.25;;
21771;SDS011;11047;47.904;8.110;2022-07-11T02:37:47;3.60;;;1.60;;
21771;SDS011;11047;47.904;8.110;2022-07-11T02:40:14;2.10;;;1.38;;
21771;SDS011;11047;47.904;8.110;2022-07-11T02:42:41;1.35;;;1.25;;
21771;SDS011;11047;47.904;8.110;2022-07-11T02:45:08;2.17;;;1.20;;
21771;SDS011;11047;47.904;8.110;2022-07-11T02:47:36;1.13;;;1.00;;
21771;SDS011;11047;47.904;8.110;2022-07-11T02:50:06;1.45;;;1.17;;
21771;SDS011;11047;47.904;8.110;2022-07-11T02:52:36;3.25;;;1.13;;
21771;SDS011;11047;47.904;8.110;2022-07-11T02:55:04;1.30;;;1.20;;
21771;SDS011;11047;47.904;8.110;2022-07-11T02:57:32;2.15;;;1.40;;
21771;SDS011;11047;47.904;8.110;2022-07-11T02:59:59;2.20;;;1.42;;
21771;SDS011;11047;47.904;8.110;2022-07-11T03:02:27;2.00;;;1.20;;
21771;SDS011;11047;47.904;8.110;2022-07-11T03:04:53;1.50;;;1.02;;
21771;SDS011;11047;47.904;8.110;2022-07-11T03:07:23;1.40;;;1.25;;
21771;SDS011;11047;47.904;8.110;2022-07-11T03:09:51;3.33;;;1.30;;
21771;SDS011;11047;47.904;8.110;2022-07-11T03:12:18;2.03;;;1.30;;
21771;SDS011;11047;47.904;8.110;2022-07-11T03:14:45;2.58;;;1.30;;
21771;SDS011;11047;47.904;8.110;2022-07-11T03:17:12;2.35;;;1.38;;
21771;SDS011;11047;47.904;8.110;2022-07-11T03:19:39;1.38;;;1.25;;
21771;SDS011;11047;47.904;8.110;2022-07-11T03:22:06;1.35;;;1.20;;
21771;SDS011;11047;47.904;8.110;2022-07-11T03:24:34;1.38;;;1.23;;
21771;SDS011;11047;47.904;8.110;2022-07-11T03:27:01;1.85;;;1.25;;
21771;SDS011;11047;47.904;8.110;2022-07-11T03:29:28;3.25;;;1.45;;
21771;SDS011;11047;47.904;8.110;2022-07-11T03:31:55;1.58;;;1.20;;
21771;SDS011;11047;47.904;8.110;2022-07-11T03:34:22;2.40;;;1.30;;
21771;SDS011;11047;47.904;8.110;2022-07-11T03:36:49;1.30;;;1.20;;
21771;SDS011;11047;47.904;8.110;2022-07-11T03:39:16;1.50;;;1.40;;
21771;SDS011;11047;47.904;8.110;2022-07-11T03:41:44;1.58;;;1.48;;
21771;SDS011;11047;47.904;8.110;2022-07-11T03:44:11;2.58;;;1.40;;
21771;SDS011;11047;47.904;8.110;2022-07-11T03:46:39;4.40;;;1.30;;
21771;SDS011;11047;47.904;8.110;2022-07-11T03:49:06;1.52;;;1.42;;
21771;SDS011;11047;47.904;8.110;2022-07-11T03:51:33;2.40;;;1.58;;
21771;SDS011;11047;47.904;8.110;2022-07-11T03:54:00;1.73;;;1.40;;
21771;SDS011;11047;47.904;8.110;2022-07-11T03:56:27;3.63;;;1.30;;
21771;SDS011;11047;47.904;8.110;2022-07-11T03:58:55;4.47;;;1.15;;
21771;SDS011;11047;47.904;8.110;2022-07-11T04:01:22;1.77;;;1.30;;
21771;SDS011;11047;47.904;8.110;2022-07-11T04:03:49;1.38;;;1.27;;
21771;SDS011;11047;47.904;8.110;2022-07-11T04:06:16;5.10;;;1.40;;
21771;SDS011;11047;47.904;8.110;2022-07-11T04:08:43;1.90;;;0.98;;
21771;SDS011;11047;47.904;8.110;2022-07-11T04:11:10;2.25;;;1.48;;
21771;SDS011;11047;47.904;8.110;2022-07-11T04:13:37;3.45;;;1.65;;
21771;SDS011;11047;47.904;8.110;2022-07-11T04:16:05;1.88;;;1.17;;
21771;SDS011;11047;47.904;8.110;2022-07-11T04:18:32;2.15;;;1.10;;
21771;SDS011;11047;47.904;8.110;2022-07-11T04:20:59;1.88;;;1.00;;
21771;SDS011;11047;47.904;8.110;2022-07-11T04:23:26;1.83;;;1.30;;
21771;SDS011;11047;47.904;8.110;2022-07-11T04:25:53;3.28;;;1.27;;
21771;SDS011;11047;47.904;8.110;2022-07-11T04:28:20;3.25;;;1.23;;
21771;SDS011;11047;47.904;8.110;2022-07-11T04:30:47;1.27;;;1.15;;
21771;SDS011;11047;47.904;8.110;2022-07-11T04:33:15;1.23;;;1.10;;
21771;SDS011;11047;47.904;8.110;2022-07-11T04:35:43;1.42;;;1.30;;
21771;SDS011;11047;47.904;8.110;2022-07-11T04:38:09;2.40;;;1.58;;
21771;SDS011;11047;47.904;8.110;2022-07-11T04:40:36;1.60;;;1.20;;
21771;SDS011;11047;47.904;8.110;2022-07-11T04:43:03;4.88;;;1.85;;
21771;SDS011;11047;47.904;8.110;2022-07-11T04:45:31;1.08;;;1.00;;
21771;SDS011;11047;47.904;8.110;2022-07-11T04:47:57;1.63;;;1.15;;
21771;SDS011;11047;47.904;8.110;2022-07-11T04:50:27;3.58;;;1.20;;
21771;SDS011;11047;47.904;8.110;2022-07-11T04:52:54;2.03;;;1.50;;
21771;SDS011;11047;47.904;8.110;2022-07-11T04:55:21;3.05;;;1.40;;
21771;SDS011;11047;47.904;8.110;2022-07-11T04:57:49;1.48;;;1.33;;
21771;SDS011;11047;47.904;8.110;2022-07-11T05:00:16;1.55;;;1.23;;
21771;SDS011;11047;47.904;8.110;2022-07-11T05:02:43;3.20;;;1.20;;
21771;SDS011;11047;47.904;8.110;2022-07-11T05:05:10;2.65;;;1.48;;
21771;SDS011;11047;47.904;8.110;2022-07-11T05:07:38;1.58;;;1.23;;
21771;SDS011;11047;47.904;8.110;2022-07-11T05:10:06;2.60;;;1.27;;
21771;SDS011;11047;47.904;8.110;2022-07-11T05:12:33;1.30;;;1.20;;
21771;SDS011;11047;47.904;8.110;2022-07-11T05:15:00;2.90;;;1.30;;
21771;SDS011;11047;47.904;8.110;2022-07-11T05:17:27;1.50;;;1.20;;
21771;SDS011;11047;47.904;8.110;2022-07-11T05:19:54;3.10;;;1.20;;
21771;SDS011;11047;47.904;8.110;2022-07-11T05:22:21;1.50;;;1.10;;
21771;SDS011;11047;47.904;8.110;2022-07-11T05:24:50;3.50;;;1.50;;
21771;SDS011;11047;47.904;8.110;2022-07-11T05:27:17;2.33;;;1.30;;
21771;SDS011;11047;47.904;8.110;2022-07-11T05:29:44;2.08;;;1.30;;
21771;SDS011;11047;47.904;8.110;2022-07-11T05:32:11;2.10;;;1.27;;
21771;SDS011;11047;47.904;8.110;2022-07-11T05:34:38;0.98;;;0.95;;
21771;SDS011;11047;47.904;8.110;2022-07-11T05:37:05;1.98;;;1.25;;
21771;SDS011;11047;47.904;8.110;2022-07-11T05:39:32;3.90;;;1.00;;
21771;SDS011;11047;47.904;8.110;2022-07-11T05:42:00;2.67;;;2.15;;
21771;SDS011;11047;47.904;8.110;2022-07-11T05:44:28;2.13;;;1.20;;
21771;SDS011;11047;47.904;8.110;2022-07-11T05:46:58;4.53;;;2.03;;
21771;SDS011;11047;47.904;8.110;2022-07-11T05:49:26;2.35;;;1.10;;
21771;SDS011;11047;47.904;8.110;2022-07-11T05:51:53;2.47;;;1.05;;
21771;SDS011;11047;47.904;8.110;2022-07-11T05:54:20;2.15;;;1.00;;
21771;SDS011;11047;47.904;8.110;2022-07-11T05:56:47;4.75;;;1.08;;
21771;SDS011;11047;47.904;8.110;2022-07-11T05:59:16;1.55;;;1.10;;
21771;SDS011;11047;47.904;8.110;2022-07-11T06:01:43;1.52;;;1.00;;
21771;SDS011;11047;47.904;8.110;2022-07-11T06:04:10;0.90;;;0.90;;
21771;SDS011;11047;47.904;8.110;2022-07-11T06:06:37;2.85;;;0.90;;
21771;SDS011;11047;47.904;8.110;2022-07-11T06:09:04;1.35;;;1.00;;
21771;SDS011;11047;47.904;8.110;2022-07-11T06:11:31;2.60;;;0.88;;
21771;SDS011;11047;47.904;8.110;2022-07-11T06:13:58;1.52;;;0.95;;
21771;SDS011;11047;47.904;8.110;2022-07-11T06:16:26;3.83;;;0.90;;
21771;SDS011;11047;47.904;8.110;2022-07-11T06:18:53;1.95;;;0.90;;
21771;SDS011;11047;47.904;8.110;2022-07-11T06:21:20;2.03;;;0.90;;
21771;SDS011;11047;47.904;8.110;2022-07-11T06:23:47;4.50;;;1.08;;
21771;SDS011;11047;47.904;8.110;2022-07-11T06:26:14;1.98;;;0.80;;
21771;SDS011;11047;47.904;8.110;2022-07-11T06:28:41;2.33;;;0.70;;
21771;SDS011;11047;47.904;8.110;2022-07-11T06:31:08;1.70;;;0.65;;
21771;SDS011;11047;47.904;8.110;2022-07-11T06:33:37;3.70;;;0.70;;
21771;SDS011;11047;47.904;8.110;2022-07-11T06:36:04;18.80;;;3.38;;
21771;SDS011;11047;47.904;8.110;2022-07-11T06:38:32;1.08;;;0.70;;
21771;SDS011;11047;47.904;8.110;2022-07-11T06:40:59;6.18;;;1.13;;
21771;SDS011;11047;47.904;8.110;2022-07-11T06:43:29;1.83;;;0.65;;
21771;SDS011;11047;47.904;8.110;2022-07-11T06:45:56;7.03;;;1.83;;
21771;SDS011;11047;47.904;8.110;2022-07-11T06:48:24;3.42;;;1.27;;
21771;SDS011;11047;47.904;8.110;2022-07-11T06:50:53;3.60;;;0.50;;
21771;SDS011;11047;47.904;8.110;2022-07-11T06:53:20;1.75;;;0.65;;
21771;SDS011;11047;47.904;8.110;2022-07-11T06:55:47;0.95;;;0.50;;
21771;SDS011;11047;47.904;8.110;2022-07-11T06:58:14;0.50;;;0.40;;
21771;SDS011;11047;47.904;8.110;2022-07-11T07:00:57;1.38;;;0.30;;
21771;SDS011;11047;47.904;8.110;2022-07-11T07:03:24;1.85;;;0.50;;
21771;SDS011;11047;47.904;8.110;2022-07-11T07:05:52;1.20;;;0.38;;
21771;SDS011;11047;47.904;8.110;2022-07-11T07:08:22;1.63;;;0.63;;
21771;SDS011;11047;47.904;8.110;2022-07-11T07:10:50;1.45;;;0.43;;
21771;SDS011;11047;47.904;8.110;2022-07-11T07:13:17;1.23;;;0.45;;
21771;SDS011;11047;47.904;8.110;2022-07-11T07:15:45;1.45;;;0.32;;
21771;SDS011;11047;47.904;8.110;2022-07-11T07:18:12;0.88;;;0.40;;
21771;SDS011;11047;47.904;8.110;2022-07-11T07:20:39;1.50;;;0.30;;
21771;SDS011;11047;47.904;8.110;2022-07-11T07:23:07;0.30;;;0.30;;
21771;SDS011;11047;47.904;8.110;2022-07-11T07:25:34;0.82;;;0.30;;
21771;SDS011;11047;47.904;8.110;2022-07-11T07:28:02;0.57;;;0.30;;
21771;SDS011;11047;47.904;8.110;2022-07-11T07:30:30;0.47;;;0.45;;
21771;SDS011;11047;47.904;8.110;2022-07-11T07:32:57;0.22;;;0.20;;
21771;SDS011;11047;47.904;8.110;2022-07-11T07:35:25;0.20;;;0.20;;
21771;SDS011;11047;47.904;8.110;2022-07-11T07:37:52;0.55;;;0.40;;
21771;SDS011;11047;47.904;8.110;2022-07-11T07:40:20;0.35;;;0.35;;
21771;SDS011;11047;47.904;8.110;2022-07-11T07:42:47;0.30;;;0.30;;
21771;SDS011;11047;47.904;8.110;2022-07-11T07:45:14;0.47;;;0.47;;
21771;SDS011;11047;47.904;8.110;2022-07-11T07:47:41;0.30;;;0.20;;
21771;SDS011;11047;47.904;8.110;2022-07-11T07:50:08;1.17;;;0.40;;
21771;SDS011;11047;47.904;8.110;2022-07-11T07:52:35;0.35;;;0.20;;
21771;SDS011;11047;47.904;8.110;2022-07-11T07:55:02;2.08;;;0.30;;
21771;SDS011;11047;47.904;8.110;2022-07-11T07:57:31;0.30;;;0.30;;
21771;SDS011;11047;47.904;8.110;2022-07-11T07:59:58;0.55;;;0.32;;
21771;SDS011;11047;47.904;8.110;2022-07-11T08:02:39;0.40;;;0.28;;
21771;SDS011;11047;47.904;8.110;2022-07-11T08:05:06;3.35;;;0.75;;
21771;SDS011;11047;47.904;8.110;2022-07-11T08:07:34;2.22;;;0.60;;
21771;SDS011;11047;47.904;8.110;2022-07-11T08:10:01;0.82;;;0.30;;
21771;SDS011;11047;47.904;8.110;2022-07-11T08:12:28;0.20;;;0.20;;
21771;SDS011;11047;47.904;8.110;2022-07-11T08:14:56;0.55;;;0.20;;
21771;SDS011;11047;47.904;8.110;2022-07-11T08:17:35;1.90;;;0.40;;
21771;SDS011;11047;47.904;8.110;2022-07-11T08:20:02;0.45;;;0.30;;
21771;SDS011;11047;47.904;8.110;2022-07-11T08:22:30;0.60;;;0.30;;
21771;SDS011;11047;47.904;8.110;2022-07-11T08:24:57;1.05;;;0.38;;
21771;SDS011;11047;47.904;8.110;2022-07-11T08:27:23;0.50;;;0.38;;
21771;SDS011;11047;47.904;8.110;2022-07-11T08:29:50;1.35;;;0.40;;
21771;SDS011;11047;47.904;8.110;2022-07-11T08:32:19;1.00;;;0.22;;
21771;SDS011;11047;47.904;8.110;2022-07-11T08:34:45;0.20;;;0.20;;
21771;SDS011;11047;47.904;8.110;2022-07-11T08:37:12;0.30;;;0.30;;
21771;SDS011;11047;47.904;8.110;2022-07-11T08:39:39;1.75;;;0.30;;
21771;SDS011;11047;47.904;8.110;2022-07-11T08:42:06;1.00;;;0.40;;
21771;SDS011;11047;47.904;8.110;2022-07-11T08:44:33;0.73;;;0.38;;
21771;SDS011;11047;47.904;8.110;2022-07-11T08:47:03;5.50;;;0.50;;
21771;SDS011;11047;47.904;8.110;2022-07-11T08:49:31;0.70;;;0.32;;
21771;SDS011;11047;47.904;8.110;2022-07-11T08:51:58;0.50;;;0.35;;
21771;SDS011;11047;47.904;8.110;2022-07-11T08:54:26;0.90;;;0.40;;
21771;SDS011;11047;47.904;8.110;2022-07-11T08:56:52;1.08;;;0.30;;
21771;SDS011;11047;47.904;8.110;2022-07-11T08:59:21;0.30;;;0.30;;
21771;SDS011;11047;47.904;8.110;2022-07-11T09:01:51;0.47;;;0.35;;
21771;SDS011;11047;47.904;8.110;2022-07-11T09:04:20;0.32;;;0.30;;
21771;SDS011;11047;47.904;8.110;2022-07-11T09:06:50;2.15;;;0.40;;
21771;SDS011;11047;47.904;8.110;2022-07-11T09:09:17;1.20;;;0.57;;
21771;SDS011;11047;47.904;8.110;2022-07-11T09:11:48;1.20;;;0.40;;
21771;SDS011;11047;47.904;8.110;2022-07-11T09:14:22;0.40;;;0.25;;
21771;SDS011;11047;47.904;8.110;2022-07-11T09:16:51;0.73;;;0.22;;
21771;SDS011;11047;47.904;8.110;2022-07-11T09:19:22;2.20;;;0.30;;
21771;SDS011;11047;47.904;8.110;2022-07-11T09:22:02;0.95;;;0.30;;
21771;SDS011;11047;47.904;8.110;2022-07-11T09:24:57;0.40;;;0.30;;
21771;SDS011;11047;47.904;8.110;2022-07-11T09:27:45;7.70;;;0.50;;
21771;SDS011;11047;47.904;8.110;2022-07-11T09:30:23;0.30;;;0.30;;
21771;SDS011;11047;47.904;8.110;2022-07-11T09:32:51;0.65;;;0.30;;
21771;SDS011;11047;47.904;8.110;2022-07-11T09:35:20;0.20;;;0.20;;
21771;SDS011;11047;47.904;8.110;2022-07-11T09:37:49;0.20;;;0.20;;
21771;SDS011;11047;47.904;8.110;2022-07-11T09:40:16;0.88;;;0.40;;
21771;SDS011;11047;47.904;8.110;2022-07-11T09:42:47;0.20;;;0.20;;
21771;SDS011;11047;47.904;8.110;2022-07-11T09:45:15;0.32;;;0.30;;
21771;SDS011;11047;47.904;8.110;2022-07-11T09:47:43;0.63;;;0.40;;
21771;SDS011;11047;47.904;8.110;2022-07-11T09:50:11;1.48;;;0.30;;
21771;SDS011;11047;47.904;8.110;2022-07-11T09:52:41;0.85;;;0.30;;
21771;SDS011;11047;47.904;8.110;2022-07-11T09:55:11;2.17;;;0.73;;
21771;SDS011;11047;47.904;8.110;2022-07-11T09:57:38;1.42;;;0.40;;
21771;SDS011;11047;47.904;8.110;2022-07-11T10:00:06;0.40;;;0.40;;
21771;SDS011;11047;47.904;8.110;2022-07-11T10:02:35;1.02;;;0.40;;
21771;SDS011;11047;47.904;8.110;2022-07-11T10:05:02;0.80;;;0.40;;
21771;SDS011;11047;47.904;8.110;2022-07-11T10:07:30;1.08;;;0.40;;
21771;SDS011;11047;47.904;8.110;2022-07-11T10:09:58;0.43;;;0.43;;
21771;SDS011;11047;47.904;8.110;2022-07-11T10:12:27;0.95;;;0.40;;
21771;SDS011;11047;47.904;8.110;2022-07-11T10:14:57;1.13;;;0.40;;
21771;SDS011;11047;47.904;8.110;2022-07-11T10:17:30;0.60;;;0.43;;
21771;SDS011;11047;47.904;8.110;2022-07-11T10:20:06;0.50;;;0.40;;
21771;SDS011;11047;47.904;8.110;2022-07-11T10:22:40;0.40;;;0.30;;
21771;SDS011;11047;47.904;8.110;2022-07-11T10:25:18;0.88;;;0.50;;
21771;SDS011;11047;47.904;8.110;2022-07-11T10:27:57;0.38;;;0.38;;
21771;SDS011;11047;47.904;8.110;2022-07-11T10:30:45;5.85;;;0.47;;
21771;SDS011;11047;47.904;8.110;2022-07-11T10:33:13;2.25;;;0.60;;
21771;SDS011;11047;47.904;8.110;2022-07-11T10:35:41;0.40;;;0.40;;
21771;SDS011;11047;47.904;8.110;2022-07-11T10:38:09;0.40;;;0.40;;
21771;SDS011;11047;47.904;8.110;2022-07-11T10:40:39;0.30;;;0.30;;
21771;SDS011;11047;47.904;8.110;2022-07-11T10:43:13;0.77;;;0.50;;
21771;SDS011;11047;47.904;8.110;2022-07-11T10:45:54;0.43;;;0.43;;
21771;SDS011;11047;47.904;8.110;2022-07-11T10:48:23;1.13;;;0.50;;
21771;SDS011;11047;47.904;8.110;2022-07-11T10:50:53;0.85;;;0.43;;
21771;SDS011;11047;47.904;8.110;2022-07-11T10:53:31;2.10;;;0.40;;
21771;SDS011;11047;47.904;8.110;2022-07-11T10:56:02;0.45;;;0.45;;
21771;SDS011;11047;47.904;8.110;2022-07-11T10:58:42;0.50;;;0.40;;
21771;SDS011;11047;47.904;8.110;2022-07-11T11:01:09;0.63;;;0.30;;
21771;SDS011;11047;47.904;8.110;2022-07-11T11:03:37;0.77;;;0.50;;
21771;SDS011;11047;47.904;8.110;2022-07-11T11:06:05;0.80;;;0.50;;
21771;SDS011;11047;47.904;8.110;2022-07-11T11:08:45;0.65;;;0.30;;
21771;SDS011;11047;47.904;8.110;2022-07-11T11:14:17;3.30;;;0.47;;
21771;SDS011;11047;47.904;8.110;2022-07-11T11:16:48;0.93;;;0.50;;
21771;SDS011;11047;47.904;8.110;2022-07-11T11:22:21;0.40;;;0.40;;
21771;SDS011;11047;47.904;8.110;2022-07-11T11:24:50;2.15;;;0.50;;
21771;SDS011;11047;47.904;8.110;2022-07-11T11:27:19;1.17;;;0.40;;
21771;SDS011;11047;47.904;8.110;2022-07-11T11:29:49;1.13;;;0.40;;
21771;SDS011;11047;47.904;8.110;2022-07-11T11:32:17;0.38;;;0.30;;
21771;SDS011;11047;47.904;8.110;2022-07-11T11:34:45;0.50;;;0.50;;
21771;SDS011;11047;47.904;8.110;2022-07-11T11:37:14;0.30;;;0.30;;
21771;SDS011;11047;47.904;8.110;2022-07-11T11:39:42;1.17;;;0.38;;
21771;SDS011;11047;47.904;8.110;2022-07-11T11:42:14;0.30;;;0.20;;
21771;SDS011;11047;47.904;8.110;2022-07-11T11:44:56;1.20;;;0.30;;
21771;SDS011;11047;47.904;8.110;2022-07-11T11:47:24;0.28;;;0.28;;
21771;SDS011;11047;47.904;8.110;2022-07-11T11:49:52;0.60;;;0.40;;
21771;SDS011;11047;47.904;8.110;2022-07-11T11:52:19;0.95;;;0.40;;
21771;SDS011;11047;47.904;8.110;2022-07-11T11:54:53;0.40;;;0.40;;
21771;SDS011;11047;47.904;8.110;2022-07-11T11:57:22;1.10;;;0.50;;
21771;SDS011;11047;47.904;8.110;2022-07-11T11:59:50;0.75;;;0.30;;
21771;SDS011;11047;47.904;8.110;2022-07-11T12:02:28;0.30;;;0.30;;
21771;SDS011;11047;47.904;8.110;2022-07-11T12:04:56;0.35;;;0.35;;
21771;SDS011;11047;47.904;8.110;2022-07-11T12:07:24;1.95;;;0.43;;
21771;SDS011;11047;47.904;8.110;2022-07-11T12:09:53;2.08;;;1.38;;
21771;SDS011;11047;47.904;8.110;2022-07-11T12:12:25;2.17;;;0.40;;
21771;SDS011;11047;47.904;8.110;2022-07-11T12:15:27;0.40;;;0.40;;
21771;SDS011;11047;47.904;8.110;2022-07-11T12:17:58;2.30;;;0.40;;
21771;SDS011;11047;47.904;8.110;2022-07-11T12:20:32;0.40;;;0.40;;
21771;SDS011;11047;47.904;8.110;2022-07-11T12:23:00;1.05;;;0.60;;
21771;SDS011;11047;47.904;8.110;2022-07-11T12:25:29;1.73;;;0.80;;
21771;SDS011;11047;47.904;8.110;2022-07-11T12:27:56;0.68;;;0.40;;
21771;SDS011;11047;47.904;8.110;2022-07-11T12:30:24;2.17;;;0.50;;
21771;SDS011;11047;47.904;8.110;2022-07-11T12:33:05;0.45;;;0.45;;
21771;SDS011;11047;47.904;8.110;2022-07-11T12:35:33;0.85;;;0.50;;
21771;SDS011;11047;47.904;8.110;2022-07-11T12:38:01;0.57;;;0.40;;
21771;SDS011;11047;47.904;8.110;2022-07-11T12:40:28;0.40;;;0.40;;
21771;SDS011;11047;47.904;8.110;2022-07-11T12:42:55;0.30;;;0.30;;
21771;SDS011;11047;47.904;8.110;2022-07-11T12:45:22;2.13;;;0.40;;
21771;SDS011;11047;47.904;8.110;2022-07-11T12:47:48;1.05;;;0.55;;
21771;SDS011;11047;47.904;8.110;2022-07-11T12:50:19;0.30;;;0.30;;
21771;SDS011;11047;47.904;8.110;2022-07-11T12:52:48;0.95;;;0.40;;
21771;SDS011;11047;47.904;8.110;2022-07-11T12:55:20;0.30;;;0.30;;
21771;SDS011;11047;47.904;8.110;2022-07-11T12:58:03;1.38;;;0.50;;
21771;SDS011;11047;47.904;8.110;2022-07-11T13:00:32;0.40;;;0.40;;
21771;SDS011;11047;47.904;8.110;2022-07-11T13:03:01;0.88;;;0.38;;
21771;SDS011;11047;47.904;8.110;2022-07-11T13:05:32;0.52;;;0.40;;
21771;SDS011;11047;47.904;8.110;2022-07-11T13:08:21;0.93;;;0.50;;
21771;SDS011;11047;47.904;8.110;2022-07-11T13:11:06;0.87;;;0.50;;
21771;SDS011;11047;47.904;8.110;2022-07-11T13:13:33;0.65;;;0.52;;
21771;SDS011;11047;47.904;8.110;2022-07-11T13:16:00;1.77;;;0.50;;
21771;SDS011;11047;47.904;8.110;2022-07-11T13:18:29;0.85;;;0.40;;
21771;SDS011;11047;47.904;8.110;2022-07-11T13:20:58;0.40;;;0.40;;
21771;SDS011;11047;47.904;8.110;2022-07-11T13:23:25;0.50;;;0.50;;
21771;SDS011;11047;47.904;8.110;2022-07-11T13:25:52;1.17;;;0.40;;
21771;SDS011;11047;47.904;8.110;2022-07-11T13:28:19;1.95;;;0.40;;
21771;SDS011;11047;47.904;8.110;2022-07-11T13:30:48;2.47;;;0.35;;
21771;SDS011;11047;47.904;8.110;2022-07-11T13:33:15;0.40;;;0.40;;
21771;SDS011;11047;47.904;8.110;2022-07-11T13:35:42;0.40;;;0.40;;
21771;SDS011;11047;47.904;8.110;2022-07-11T13:38:12;1.73;;;0.32;;
21771;SDS011;11047;47.904;8.110;2022-07-11T13:40:39;0.40;;;0.40;;
21771;SDS011;11047;47.904;8.110;2022-07-11T13:43:06;0.45;;;0.40;;
21771;SDS011;11047;47.904;8.110;2022-07-11T13:45:33;0.70;;;0.70;;
21771;SDS011;11047;47.904;8.110;2022-07-11T13:48:00;13.90;;;0.95;;
21771;SDS011;11047;47.904;8.110;2022-07-11T13:50:27;2.65;;;0.50;;
21771;SDS011;11047;47.904;8.110;2022-07-11T13:52:54;0.63;;;0.43;;
21771;SDS011;11047;47.904;8.110;2022-07-11T13:55:23;0.50;;;0.40;;
21771;SDS011;11047;47.904;8.110;2022-07-11T13:57:53;0.60;;;0.40;;
21771;SDS011;11047;47.904;8.110;2022-07-11T14:00:21;2.55;;;0.50;;
21771;SDS011;11047;47.904;8.110;2022-07-11T14:02:49;0.40;;;0.40;;
21771;SDS011;11047;47.904;8.110;2022-07-11T14:05:17;2.78;;;0.50;;
21771;SDS011;11047;47.904;8.110;2022-07-11T14:07:44;1.10;;;0.25;;
21771;SDS011;11047;47.904;8.110;2022-07-11T14:10:11;0.40;;;0.40;;
21771;SDS011;11047;47.904;8.110;2022-07-11T14:12:39;0.30;;;0.30;;
21771;SDS011;11047;47.904;8.110;2022-07-11T14:15:07;0.40;;;0.40;;
21771;SDS011;11047;47.904;8.110;2022-07-11T14:17:35;1.65;;;0.60;;
21771;SDS011;11047;47.904;8.110;2022-07-11T14:20:02;0.85;;;0.40;;
21771;SDS011;11047;47.904;8.110;2022-07-11T14:22:29;2.78;;;0.60;;
21771;SDS011;11047;47.904;8.110;2022-07-11T14:24:56;0.40;;;0.40;;
21771;SDS011;11047;47.904;8.110;2022-07-11T14:27:23;2.00;;;1.23;;
21771;SDS011;11047;47.904;8.110;2022-07-11T14:29:51;0.70;;;0.60;;
21771;SDS011;11047;47.904;8.110;2022-07-11T14:32:18;0.85;;;0.50;;
21771;SDS011;11047;47.904;8.110;2022-07-11T14:34:46;0.30;;;0.30;;
21771;SDS011;11047;47.904;8.110;2022-07-11T14:37:13;2.85;;;0.43;;
21771;SDS011;11047;47.904;8.110;2022-07-11T14:39:40;2.70;;;0.47;;
21771;SDS011;11047;47.904;8.110;2022-07-11T14:42:07;0.57;;;0.47;;
21771;SDS011;11047;47.904;8.110;2022-07-11T14:44:34;0.90;;;0.47;;
21771;SDS011;11047;47.904;8.110;2022-07-11T14:47:03;2.67;;;0.80;;
21771;SDS011;11047;47.904;8.110;2022-07-11T14:49:30;3.60;;;0.68;;
21771;SDS011;11047;47.904;8.110;2022-07-11T14:51:57;1.88;;;0.40;;
21771;SDS011;11047;47.904;8.110;2022-07-11T14:54:24;0.32;;;0.32;;
21771;SDS011;11047;47.904;8.110;2022-07-11T14:56:51;0.40;;;0.40;;
21771;SDS011;11047;47.904;8.110;2022-07-11T14:59:18;0.25;;;0.25;;
21771;SDS011;11047;47.904;8.110;2022-07-11T15:01:45;0.50;;;0.50;;
21771;SDS011;11047;47.904;8.110;2022-07-11T15:04:13;0.52;;;0.40;;